createdAt,value
2019-01-05T00:00:37.810Z,18.63
2019-01-05T00:01:46.646Z,18.58
2019-01-05T00:02:55.980Z,18.62
2019-01-05T00:04:05.077Z,18.6
2019-01-05T00:05:13.903Z,18.55
2019-01-05T00:06:22.993Z,18.63
2019-01-05T00:07:32.093Z,18.6
2019-01-05T00:08:40.922Z,18.6
2019-01-05T00:09:50.101Z,18.58
2019-01-05T00:10:59.720Z,18.62
2019-01-05T00:12:08.806Z,18.63
2019-01-05T00:13:18.146Z,18.66
2019-01-05T00:14:27.221Z,18.6
2019-01-05T00:15:36.567Z,18.57
2019-01-05T00:16:45.439Z,18.6
2019-01-05T00:17:54.511Z,18.57
2019-01-05T00:19:03.575Z,18.55
2019-01-05T00:20:12.407Z,18.55
2019-01-05T00:21:24.126Z,18.58
2019-01-05T00:22:33.222Z,18.54
2019-01-05T00:23:42.595Z,18.55
2019-01-05T00:24:51.431Z,18.65
2019-01-05T00:26:00.249Z,18.54
2019-01-05T00:27:09.356Z,18.62
2019-01-05T00:28:18.441Z,18.58
2019-01-05T00:29:27.263Z,18.57
2019-01-05T00:30:36.097Z,18.55
2019-01-05T00:31:45.176Z,18.55
2019-01-05T00:32:54.514Z,18.62
2019-01-05T00:34:03.314Z,18.55
2019-01-05T00:35:12.416Z,18.62
2019-01-05T00:36:21.498Z,18.52
2019-01-05T00:37:30.331Z,18.47
2019-01-05T00:38:39.417Z,18.52
2019-01-05T00:39:48.748Z,18.58
2019-01-05T00:40:57.582Z,18.51
2019-01-05T00:42:06.668Z,18.5
2019-01-05T00:43:15.764Z,18.57
2019-01-05T00:44:24.587Z,18.57
2019-01-05T00:45:33.414Z,18.52
2019-01-05T00:46:42.224Z,18.62
2019-01-05T00:47:51.296Z,18.58
2019-01-05T00:49:00.383Z,18.52
2019-01-05T00:50:09.304Z,18.58
2019-01-05T00:51:18.666Z,18.55
2019-01-05T00:52:27.765Z,18.54
2019-01-05T00:53:36.855Z,18.51
2019-01-05T00:54:45.709Z,18.52
2019-01-05T00:55:54.874Z,18.55
2019-01-05T00:57:03.969Z,18.5
2019-01-05T00:58:12.805Z,18.54
2019-01-05T00:59:22.152Z,18.5
2019-01-05T01:00:31.513Z,18.51
2019-01-05T01:01:40.608Z,18.54
2019-01-05T01:02:49.411Z,18.48
2019-01-05T01:03:58.476Z,18.5
2019-01-05T01:05:07.577Z,18.5
2019-01-05T01:06:16.647Z,18.52
2019-01-05T01:07:25.482Z,18.58
2019-01-05T01:08:34.838Z,18.52
2019-01-05T01:09:43.670Z,18.54
2019-01-05T01:10:52.800Z,18.54
2019-01-05T01:12:01.624Z,18.5
2019-01-05T01:13:10.458Z,18.47
2019-01-05T01:14:19.818Z,18.6
2019-01-05T01:15:29.170Z,18.52
2019-01-05T01:16:37.993Z,18.47
2019-01-05T01:17:47.060Z,18.52
2019-01-05T01:18:56.267Z,18.52
2019-01-05T01:20:05.470Z,18.5
2019-01-05T01:21:14.563Z,18.39
2019-01-05T01:22:23.631Z,18.54
2019-01-05T01:23:32.456Z,18.52
2019-01-05T01:24:41.371Z,18.54
2019-01-05T01:25:50.193Z,18.51
2019-01-05T01:26:59.789Z,18.54
2019-01-05T01:28:08.879Z,18.42
2019-01-05T01:29:18.002Z,18.5
2019-01-05T01:30:26.821Z,18.47
2019-01-05T01:31:35.668Z,18.5
2019-01-05T01:32:44.804Z,18.54
2019-01-05T01:33:53.911Z,18.54
2019-01-05T01:35:03.237Z,18.5
2019-01-05T01:36:12.416Z,18.52
2019-01-05T01:37:21.249Z,18.51
2019-01-05T01:38:30.086Z,18.5
2019-01-05T01:39:38.906Z,18.5
2019-01-05T01:40:47.729Z,18.54
2019-01-05T01:41:56.915Z,18.52
2019-01-05T01:43:05.740Z,18.5
2019-01-05T01:44:14.578Z,18.52
2019-01-05T01:45:23.380Z,18.5
2019-01-05T01:46:32.219Z,18.5
2019-01-05T01:47:41.678Z,18.55
2019-01-05T01:48:50.770Z,18.47
2019-01-05T01:49:59.872Z,18.51
2019-01-05T01:51:08.711Z,18.54
2019-01-05T01:52:18.332Z,18.48
2019-01-05T01:53:27.528Z,18.51
2019-01-05T01:54:36.335Z,18.5
2019-01-05T01:55:45.148Z,18.5
2019-01-05T01:56:54.233Z,18.48
2019-01-05T01:58:03.342Z,18.47
2019-01-05T01:59:12.447Z,18.52
2019-01-05T02:00:21.257Z,18.44
2019-01-05T02:01:30.371Z,18.48
2019-01-05T02:02:39.484Z,18.48
2019-01-05T02:03:48.571Z,18.5
2019-01-05T02:04:57.689Z,18.5
2019-01-05T02:06:06.914Z,18.44
2019-01-05T02:07:15.739Z,18.44
2019-01-05T02:08:24.819Z,18.52
2019-01-05T02:09:34.159Z,18.41
2019-01-05T02:10:42.980Z,18.45
2019-01-05T02:11:51.785Z,18.42
2019-01-05T02:13:00.904Z,18.42
2019-01-05T02:14:10.235Z,18.52
2019-01-05T02:15:19.579Z,18.48
2019-01-05T02:16:28.656Z,18.48
2019-01-05T02:17:38.025Z,18.39
2019-01-05T02:19:00.596Z,18.5
2019-01-05T02:20:09.936Z,18.48
2019-01-05T02:21:18.787Z,18.5
2019-01-05T02:22:27.596Z,18.42
2019-01-05T02:23:36.691Z,18.5
2019-01-05T02:24:45.507Z,18.51
2019-01-05T02:25:54.854Z,18.44
2019-01-05T02:27:03.658Z,18.52
2019-01-05T02:28:12.739Z,18.48
2019-01-05T02:29:21.847Z,18.37
2019-01-05T02:30:30.656Z,18.42
2019-01-05T02:31:39.475Z,18.41
2019-01-05T02:32:48.609Z,18.37
2019-01-05T02:33:57.491Z,18.41
2019-01-05T02:35:06.334Z,18.37
2019-01-05T02:36:15.456Z,18.41
2019-01-05T02:37:24.285Z,18.39
2019-01-05T02:38:33.639Z,18.42
2019-01-05T02:39:42.827Z,18.39
2019-01-05T02:40:51.947Z,18.47
2019-01-05T02:42:00.792Z,18.37
2019-01-05T02:43:09.893Z,18.41
2019-01-05T02:44:19.002Z,18.45
2019-01-05T02:45:27.934Z,18.44
2019-01-05T02:46:37.566Z,18.39
2019-01-05T02:47:46.637Z,18.42
2019-01-05T02:48:56.010Z,18.41
2019-01-05T02:50:05.119Z,18.39
2019-01-05T02:51:13.995Z,18.37
2019-01-05T02:52:23.118Z,18.42
2019-01-05T02:53:32.454Z,18.47
2019-01-05T02:54:41.278Z,18.44
2019-01-05T02:55:50.618Z,18.44
2019-01-05T02:56:59.802Z,18.44
2019-01-05T02:58:08.671Z,18.36
2019-01-05T02:59:17.479Z,18.33
2019-01-05T03:00:26.566Z,18.35
2019-01-05T03:01:35.416Z,18.37
2019-01-05T03:02:44.783Z,18.36
2019-01-05T03:03:53.885Z,18.33
2019-01-05T03:05:03.289Z,18.33
2019-01-05T03:06:12.117Z,18.36
2019-01-05T03:07:21.244Z,18.37
2019-01-05T03:08:30.120Z,18.33
2019-01-05T03:09:38.943Z,18.33
2019-01-05T03:10:48.295Z,18.36
2019-01-05T03:11:57.133Z,18.37
2019-01-05T03:13:05.959Z,18.36
2019-01-05T03:14:15.142Z,18.41
2019-01-05T03:15:24.231Z,18.29
2019-01-05T03:16:33.115Z,18.36
2019-01-05T03:17:42.211Z,18.37
2019-01-05T03:18:51.017Z,18.3
2019-01-05T03:20:00.187Z,18.39
2019-01-05T03:21:09.819Z,18.36
2019-01-05T03:22:18.694Z,18.36
2019-01-05T03:23:27.820Z,18.33
2019-01-05T03:24:37.450Z,18.39
2019-01-05T03:25:46.589Z,18.37
2019-01-05T03:26:55.677Z,18.41
2019-01-05T03:28:05.018Z,18.33
2019-01-05T03:29:14.118Z,18.35
2019-01-05T03:30:22.966Z,18.36
2019-01-05T03:31:32.177Z,18.35
2019-01-05T03:32:41.031Z,18.39
2019-01-05T03:33:49.878Z,18.33
2019-01-05T03:34:59.226Z,18.37
2019-01-05T03:36:08.608Z,18.33
2019-01-05T03:37:17.496Z,18.32
2019-01-05T03:38:26.329Z,18.44
2019-01-05T03:39:35.149Z,18.29
2019-01-05T03:40:44.267Z,18.33
2019-01-05T03:41:53.087Z,18.33
2019-01-05T03:43:02.532Z,18.32
2019-01-05T03:44:11.382Z,18.37
2019-01-05T03:45:20.478Z,18.32
2019-01-05T03:46:29.562Z,18.33
2019-01-05T03:47:38.402Z,18.33
2019-01-05T03:48:47.851Z,18.35
2019-01-05T03:49:57.232Z,18.3
2019-01-05T03:51:06.065Z,18.27
2019-01-05T03:52:14.896Z,18.33
2019-01-05T03:53:23.740Z,18.3
2019-01-05T03:54:32.822Z,18.32
2019-01-05T03:55:41.622Z,18.3
2019-01-05T03:56:50.720Z,18.37
2019-01-05T03:57:59.815Z,18.3
2019-01-05T03:59:08.901Z,18.32
2019-01-05T04:00:18.089Z,18.33
2019-01-05T04:01:26.920Z,18.29
2019-01-05T04:02:35.750Z,18.32
2019-01-05T04:03:44.836Z,18.3
2019-01-05T04:04:53.911Z,18.32
2019-01-05T04:06:02.822Z,18.32
2019-01-05T04:07:11.636Z,18.35
2019-01-05T04:08:21.279Z,18.32
2019-01-05T04:09:30.104Z,18.32
2019-01-05T04:10:38.908Z,18.29
2019-01-05T04:11:48.040Z,18.3
2019-01-05T04:12:57.132Z,18.23
2019-01-05T04:14:05.967Z,18.29
2019-01-05T04:15:14.809Z,18.29
2019-01-05T04:16:23.640Z,18.25
2019-01-05T04:17:32.573Z,18.23
2019-01-05T04:18:41.925Z,18.37
2019-01-05T04:19:50.753Z,18.27
2019-01-05T04:20:59.859Z,18.25
2019-01-05T04:22:08.672Z,18.23
2019-01-05T04:23:18.295Z,18.29
2019-01-05T04:24:27.662Z,18.23
2019-01-05T04:25:36.481Z,18.23
2019-01-05T04:26:45.325Z,18.33
2019-01-05T04:27:54.721Z,18.35
2019-01-05T04:29:04.093Z,18.2
2019-01-05T04:30:13.196Z,18.21
2019-01-05T04:31:21.996Z,18.2
2019-01-05T04:32:31.347Z,18.25
2019-01-05T04:33:40.699Z,18.21
2019-01-05T04:34:50.034Z,18.23
2019-01-05T04:35:59.142Z,18.17
2019-01-05T04:37:07.965Z,18.2
2019-01-05T04:38:17.308Z,18.21
2019-01-05T04:39:26.150Z,18.2
2019-01-05T04:40:35.090Z,18.17
2019-01-05T04:41:43.922Z,18.23
2019-01-05T04:42:53.318Z,18.23
2019-01-05T04:44:02.421Z,18.2
2019-01-05T04:45:11.788Z,18.23
2019-01-05T04:46:20.987Z,18.26
2019-01-05T04:47:30.063Z,18.17
2019-01-05T04:48:38.882Z,18.18
2019-01-05T04:49:48.495Z,18.26
2019-01-05T04:50:57.624Z,18.25
2019-01-05T04:52:06.989Z,18.15
2019-01-05T04:53:16.075Z,18.23
2019-01-05T04:54:24.892Z,18.21
2019-01-05T04:55:33.981Z,18.17
2019-01-05T04:56:42.808Z,18.21
2019-01-05T04:57:51.960Z,18.26
2019-01-05T04:59:01.067Z,18.23
2019-01-05T05:00:09.892Z,18.25
2019-01-05T05:01:18.988Z,18.17
2019-01-05T05:02:28.072Z,18.25
2019-01-05T05:03:37.292Z,18.25
2019-01-05T05:04:46.134Z,18.25
2019-01-05T05:05:55.231Z,18.21
2019-01-05T05:07:04.081Z,18.18
2019-01-05T05:08:13.468Z,18.2
2019-01-05T05:09:22.585Z,18.21
2019-01-05T05:10:31.693Z,18.25
2019-01-05T05:11:40.543Z,18.25
2019-01-05T05:12:49.357Z,18.25
2019-01-05T05:13:58.443Z,18.26
2019-01-05T05:15:08.108Z,18.23
2019-01-05T05:16:16.935Z,18.2
2019-01-05T05:17:26.282Z,18.23
2019-01-05T05:18:35.122Z,18.25
2019-01-05T05:19:44.221Z,18.2
2019-01-05T05:20:53.377Z,18.25
2019-01-05T05:22:02.465Z,18.23
2019-01-05T05:23:11.311Z,18.2
2019-01-05T05:24:20.663Z,18.18
2019-01-05T05:25:29.771Z,18.18
2019-01-05T05:26:38.618Z,18.2
2019-01-05T05:27:47.730Z,18.2
2019-01-05T05:28:56.571Z,18.2
2019-01-05T05:30:05.663Z,18.17
2019-01-05T05:31:14.745Z,18.2
2019-01-05T05:32:23.646Z,18.15
2019-01-05T05:33:32.709Z,18.18
2019-01-05T05:34:41.806Z,18.08
2019-01-05T05:35:50.959Z,18.17
2019-01-05T05:37:00.064Z,18.12
2019-01-05T05:38:08.891Z,18.15
2019-01-05T05:39:17.712Z,18.12
2019-01-05T05:40:27.066Z,18.15
2019-01-05T05:41:36.141Z,18.12
2019-01-05T05:42:45.243Z,18.15
2019-01-05T05:43:54.385Z,18.18
2019-01-05T05:45:04.033Z,18.2
2019-01-05T05:46:13.132Z,18.11
2019-01-05T05:47:22.218Z,18.12
2019-01-05T05:48:31.332Z,18.11
2019-01-05T05:49:40.243Z,18.15
2019-01-05T05:50:49.348Z,18.14
2019-01-05T05:51:58.443Z,18.15
2019-01-05T05:53:07.801Z,18.12
2019-01-05T05:54:16.907Z,18.08
2019-01-05T05:55:26.325Z,18.1
2019-01-05T05:56:35.678Z,18.18
2019-01-05T05:57:45.008Z,18.11
2019-01-05T05:58:54.112Z,18.17
2019-01-05T06:00:03.181Z,18.08
2019-01-05T06:01:12.382Z,18.11
2019-01-05T06:02:21.208Z,18.05
2019-01-05T06:03:30.297Z,18.02
2019-01-05T06:04:39.096Z,18.08
2019-01-05T06:05:48.190Z,18.12
2019-01-05T06:06:57.074Z,18.08
2019-01-05T06:08:06.728Z,18.1
2019-01-05T06:09:16.064Z,18.11
2019-01-05T06:10:25.148Z,18.11
2019-01-05T06:11:33.956Z,18.11
2019-01-05T06:12:43.372Z,18.14
2019-01-05T06:13:52.705Z,18.12
2019-01-05T06:15:01.540Z,18.11
2019-01-05T06:16:10.351Z,18.17
2019-01-05T06:17:19.434Z,18.11
2019-01-05T06:18:28.525Z,18.14
2019-01-05T06:19:37.376Z,18.11
2019-01-05T06:20:46.453Z,18.07
2019-01-05T06:21:55.264Z,18.08
2019-01-05T06:23:04.356Z,18.1
2019-01-05T06:24:13.174Z,18.08
2019-01-05T06:25:22.274Z,18.08
2019-01-05T06:26:31.119Z,18.12
2019-01-05T06:27:39.937Z,18.08
2019-01-05T06:28:49.022Z,18.07
2019-01-05T06:29:58.349Z,18.03
2019-01-05T06:31:07.173Z,18.07
2019-01-05T06:32:15.998Z,18.07
2019-01-05T06:33:25.349Z,18.07
2019-01-05T06:34:34.168Z,18.08
2019-01-05T06:35:43.082Z,18.05
2019-01-05T06:36:51.888Z,18.08
2019-01-05T06:38:00.974Z,18.08
2019-01-05T06:39:09.852Z,18.05
2019-01-05T06:40:18.960Z,18.05
2019-01-05T06:41:28.147Z,18.11
2019-01-05T06:42:37.478Z,18.08
2019-01-05T06:43:46.289Z,18.1
2019-01-05T06:44:55.115Z,18.03
2019-01-05T06:46:04.458Z,18.11
2019-01-05T06:47:13.635Z,18.07
2019-01-05T06:48:22.955Z,18.08
2019-01-05T06:49:31.770Z,18.07
2019-01-05T06:50:40.853Z,18.05
2019-01-05T06:51:49.675Z,18.08
2019-01-05T06:52:58.747Z,18.08
2019-01-05T06:54:07.560Z,18.08
2019-01-05T06:55:16.893Z,18.03
2019-01-05T06:56:26.235Z,18.08
2019-01-05T06:57:35.325Z,18.05
2019-01-05T06:58:44.524Z,18.07
2019-01-05T06:59:53.339Z,18.03
2019-01-05T07:01:02.440Z,18.08
2019-01-05T07:02:11.271Z,18.02
2019-01-05T07:03:20.091Z,18.05
2019-01-05T07:04:29.249Z,18.05
2019-01-05T07:05:38.048Z,18.07
2019-01-05T07:06:47.415Z,18.07
2019-01-05T07:07:56.246Z,18.02
2019-01-05T07:09:05.066Z,18.07
2019-01-05T07:10:14.151Z,18.03
2019-01-05T07:11:23.251Z,18.05
2019-01-05T07:12:32.348Z,18.05
2019-01-05T07:13:41.482Z,18.12
2019-01-05T07:14:50.313Z,18.05
2019-01-05T07:15:59.143Z,18.02
2019-01-05T07:17:08.245Z,18.1
2019-01-05T07:18:17.053Z,18.05
2019-01-05T07:19:26.141Z,18
2019-01-05T07:20:35.213Z,18.07
2019-01-05T07:21:44.064Z,18.02
2019-01-05T07:22:53.130Z,18.1
2019-01-05T07:24:02.204Z,18.07
2019-01-05T07:25:11.554Z,18.03
2019-01-05T07:26:20.373Z,18.05
2019-01-05T07:27:29.256Z,18.02
2019-01-05T07:28:38.348Z,18.03
2019-01-05T07:29:47.703Z,18.08
2019-01-05T07:30:56.516Z,18.12
2019-01-05T07:32:05.334Z,18.1
2019-01-05T07:33:14.198Z,18.03
2019-01-05T07:34:23.292Z,18.03
2019-01-05T07:35:32.926Z,18.05
2019-01-05T07:36:41.767Z,18.07
2019-01-05T07:37:50.581Z,18.02
2019-01-05T07:38:59.683Z,18.08
2019-01-05T07:40:08.519Z,18.14
2019-01-05T07:41:17.871Z,18.1
2019-01-05T07:42:26.953Z,18.08
2019-01-05T07:43:36.432Z,18.03
2019-01-05T07:44:45.544Z,17.99
2019-01-05T07:45:54.386Z,18.08
2019-01-05T07:47:03.498Z,18.07
2019-01-05T07:48:12.622Z,18.12
2019-01-05T07:49:21.698Z,18.08
2019-01-05T07:50:30.812Z,18.08
2019-01-05T07:51:40.153Z,18.11
2019-01-05T07:52:49.272Z,18.08
2019-01-05T07:53:58.336Z,18.08
2019-01-05T07:55:07.173Z,18.2
2019-01-05T07:56:16.032Z,18.05
2019-01-05T07:57:25.367Z,18.12
2019-01-05T07:58:34.468Z,18.07
2019-01-05T07:59:43.281Z,18.05
2019-01-05T08:00:52.315Z,18.08
2019-01-05T08:02:01.321Z,18.05
2019-01-05T08:03:10.160Z,18.11
2019-01-05T08:04:19.263Z,18.11
2019-01-05T08:05:28.611Z,18.08
2019-01-05T08:06:37.470Z,18.05
2019-01-05T08:07:46.402Z,18.08
2019-01-05T08:08:55.198Z,18.08
2019-01-05T08:10:04.024Z,18.05
2019-01-05T08:11:12.853Z,18.02
2019-01-05T08:12:21.977Z,18.1
2019-01-05T08:13:31.311Z,18.08
2019-01-05T08:14:40.408Z,18.11
2019-01-05T08:15:49.530Z,18.07
2019-01-05T08:16:58.888Z,18.1
2019-01-05T08:18:08.008Z,18.03
2019-01-05T08:19:17.403Z,18.14
2019-01-05T08:20:26.500Z,18.08
2019-01-05T08:21:36.534Z,18.1
2019-01-05T08:22:45.866Z,18.12
2019-01-05T08:23:55.205Z,18.1
2019-01-05T08:25:04.541Z,18.15
2019-01-05T08:26:13.364Z,18.08
2019-01-05T08:27:22.752Z,18.08
2019-01-05T08:28:31.562Z,18.08
2019-01-05T08:29:40.900Z,18.15
2019-01-05T08:30:50.574Z,18.1
2019-01-05T08:31:59.938Z,18.05
2019-01-05T08:33:08.766Z,18.15
2019-01-05T08:34:18.143Z,18.1
2019-01-05T08:35:27.502Z,18.1
2019-01-05T08:36:36.697Z,18.08
2019-01-05T08:37:45.783Z,18.07
2019-01-05T08:38:54.847Z,18.14
2019-01-05T08:40:03.949Z,18.1
2019-01-05T08:41:13.027Z,18.15
2019-01-05T08:42:22.481Z,18.08
2019-01-05T08:43:31.383Z,18.11
2019-01-05T08:44:40.209Z,18.08
2019-01-05T08:45:49.283Z,18.07
2019-01-05T08:46:58.360Z,18.12
2019-01-05T08:48:07.553Z,18.11
2019-01-05T08:49:16.634Z,18.18
2019-01-05T08:50:25.461Z,18.21
2019-01-05T08:51:34.562Z,18.11
2019-01-05T08:52:44.198Z,18.17
2019-01-05T08:53:53.636Z,18.12
2019-01-05T08:55:02.990Z,18.07
2019-01-05T08:56:11.791Z,18.11
2019-01-05T08:57:20.876Z,18.18
2019-01-05T08:58:29.961Z,18.12
2019-01-05T08:59:39.074Z,18.23
2019-01-05T09:00:47.901Z,18.17
2019-01-05T09:01:56.731Z,18.18
2019-01-05T09:03:05.561Z,18.18
2019-01-05T09:04:14.916Z,18.14
2019-01-05T09:05:23.775Z,18.15
2019-01-05T09:06:32.855Z,18.12
2019-01-05T09:07:41.668Z,18.14
2019-01-05T09:08:50.499Z,18.12
2019-01-05T09:10:00.198Z,18.15
2019-01-05T09:11:09.083Z,18.17
2019-01-05T09:12:17.908Z,18.12
2019-01-05T09:13:27.261Z,18.15
2019-01-05T09:14:36.844Z,18.14
2019-01-05T09:15:46.443Z,18.18
2019-01-05T09:16:55.593Z,18.2
2019-01-05T09:18:04.418Z,18.25
2019-01-05T09:19:13.247Z,18.12
2019-01-05T09:20:22.066Z,18.14
2019-01-05T09:21:30.872Z,18.14
2019-01-05T09:22:40.289Z,18.14
2019-01-05T09:23:49.370Z,18.14
2019-01-05T09:24:58.733Z,18.25
2019-01-05T09:26:07.543Z,18.23
2019-01-05T09:27:22.895Z,18.17
2019-01-05T09:28:32.383Z,18.18
2019-01-05T09:29:41.485Z,18.21
2019-01-05T09:30:50.341Z,18.2
2019-01-05T09:31:59.698Z,18.26
2019-01-05T09:33:08.777Z,18.2
2019-01-05T09:34:17.715Z,18.18
2019-01-05T09:35:26.543Z,18.25
2019-01-05T09:36:35.904Z,18.25
2019-01-05T09:37:44.986Z,18.2
2019-01-05T09:38:53.802Z,18.25
2019-01-05T09:40:03.261Z,18.27
2019-01-05T09:41:12.414Z,18.21
2019-01-05T09:42:21.246Z,18.21
2019-01-05T09:43:30.070Z,18.18
2019-01-05T09:44:39.440Z,18.23
2019-01-05T09:45:48.295Z,18.23
2019-01-05T09:46:57.392Z,18.2
2019-01-05T09:48:06.492Z,18.26
2019-01-05T09:49:15.322Z,18.17
2019-01-05T09:50:24.143Z,18.21
2019-01-05T09:51:33.024Z,18.25
2019-01-05T09:52:41.824Z,18.2
2019-01-05T09:53:50.646Z,18.26
2019-01-05T09:54:59.733Z,18.26
2019-01-05T09:56:08.548Z,18.21
2019-01-05T09:57:17.745Z,18.25
2019-01-05T09:58:26.819Z,18.25
2019-01-05T09:59:35.652Z,18.17
2019-01-05T10:00:44.466Z,18.2
2019-01-05T10:01:53.582Z,18.2
2019-01-05T10:03:02.698Z,18.21
2019-01-05T10:04:11.810Z,18.23
2019-01-05T10:05:20.909Z,18.32
2019-01-05T10:06:29.989Z,18.32
2019-01-05T10:07:39.591Z,18.29
2019-01-05T10:08:48.945Z,18.25
2019-01-05T10:09:57.776Z,18.25
2019-01-05T10:11:06.666Z,18.27
2019-01-05T10:12:15.500Z,18.35
2019-01-05T10:13:24.576Z,18.27
2019-01-05T10:14:33.785Z,18.25
2019-01-05T10:15:42.618Z,18.25
2019-01-05T10:16:51.708Z,18.25
2019-01-05T10:18:01.901Z,18.27
2019-01-05T10:19:11.034Z,18.2
2019-01-05T10:20:19.863Z,18.21
2019-01-05T10:21:28.964Z,18.26
2019-01-05T10:22:38.058Z,18.25
2019-01-05T10:23:46.881Z,18.32
2019-01-05T10:24:55.713Z,18.33
2019-01-05T10:26:04.901Z,18.29
2019-01-05T10:27:13.969Z,18.37
2019-01-05T10:28:23.059Z,18.3
2019-01-05T10:29:31.878Z,18.35
2019-01-05T10:30:40.718Z,18.33
2019-01-05T10:31:49.548Z,18.29
2019-01-05T10:32:58.392Z,18.33
2019-01-05T10:34:07.213Z,18.33
2019-01-05T10:35:16.310Z,18.26
2019-01-05T10:36:25.398Z,18.32
2019-01-05T10:37:35.087Z,18.14
2019-01-05T10:38:43.921Z,18.18
2019-01-05T10:39:53.561Z,18.25
2019-01-05T10:41:02.798Z,18.35
2019-01-05T10:42:11.941Z,18.33
2019-01-05T10:43:20.801Z,18.33
2019-01-05T10:44:29.885Z,18.39
2019-01-05T10:45:39.530Z,18.33
2019-01-05T10:46:48.597Z,18.33
2019-01-05T10:47:57.869Z,18.33
2019-01-05T10:49:06.986Z,18.32
2019-01-05T10:50:16.088Z,18.39
2019-01-05T10:51:25.422Z,18.29
2019-01-05T10:52:35.670Z,18.29
2019-01-05T10:53:44.506Z,18.29
2019-01-05T10:54:53.696Z,18.32
2019-01-05T10:56:02.789Z,18.36
2019-01-05T10:57:11.623Z,18.32
2019-01-05T10:58:20.697Z,18.36
2019-01-05T10:59:29.785Z,18.3
2019-01-05T11:00:38.662Z,18.37
2019-01-05T11:01:47.757Z,18.35
2019-01-05T11:02:56.598Z,18.32
2019-01-05T11:04:05.953Z,18.36
2019-01-05T11:05:16.323Z,18.32
2019-01-05T11:06:25.279Z,18.29
2019-01-05T11:07:34.109Z,18.29
2019-01-05T11:08:42.935Z,18.32
2019-01-05T11:09:52.283Z,18.35
2019-01-05T11:11:01.682Z,18.36
2019-01-05T11:12:10.796Z,18.29
2019-01-05T11:13:19.620Z,18.35
2019-01-05T11:14:28.448Z,18.32
2019-01-05T11:15:37.829Z,18.35
2019-01-05T11:16:47.176Z,18.29
2019-01-05T11:17:56.296Z,18.35
2019-01-05T11:19:05.132Z,18.33
2019-01-05T11:20:13.976Z,18.3
2019-01-05T11:21:23.717Z,18.26
2019-01-05T11:22:32.527Z,18.35
2019-01-05T11:23:41.616Z,18.3
2019-01-05T11:24:50.638Z,18.32
2019-01-05T11:25:59.765Z,18.35
2019-01-05T11:27:08.585Z,18.3
2019-01-05T11:28:17.715Z,18.3
2019-01-05T11:29:26.711Z,18.35
2019-01-05T11:30:35.807Z,18.32
2019-01-05T11:31:44.976Z,18.23
2019-01-05T11:32:54.088Z,18.26
2019-01-05T11:34:03.737Z,18.23
2019-01-05T11:35:13.220Z,18.26
2019-01-05T11:36:22.360Z,18.23
2019-01-05T11:37:31.270Z,18.25
2019-01-05T11:38:40.411Z,18.25
2019-01-05T11:39:49.280Z,18.26
2019-01-05T11:40:58.653Z,18.2
2019-01-05T11:42:07.535Z,18.21
2019-01-05T11:43:16.468Z,18.29
2019-01-05T11:44:25.592Z,18.23
2019-01-05T11:45:34.451Z,18.23
2019-01-05T11:46:43.672Z,18.25
2019-01-05T11:47:52.911Z,18.21
2019-01-05T11:49:02.021Z,18.23
2019-01-05T11:50:12.098Z,18.23
2019-01-05T11:51:21.303Z,18.25
2019-01-05T11:52:30.151Z,18.23
2019-01-05T11:53:39.041Z,18.23
2019-01-05T11:54:47.874Z,18.25
2019-01-05T11:55:56.994Z,18.25
2019-01-05T11:57:05.857Z,18.18
2019-01-05T11:58:14.853Z,18.2
2019-01-05T11:59:23.972Z,18.21
2019-01-05T12:00:33.108Z,18.32
2019-01-05T12:01:42.232Z,18.2
2019-01-05T12:02:51.336Z,18.27
2019-01-05T12:04:00.522Z,18.35
2019-01-05T12:05:09.379Z,18.3
2019-01-05T12:06:18.499Z,18.2
2019-01-05T12:07:27.377Z,18.21
2019-01-05T12:08:36.514Z,18.25
2019-01-05T12:09:45.613Z,18.18
2019-01-05T12:10:54.440Z,18.23
2019-01-05T12:12:03.275Z,18.21
2019-01-05T12:13:12.108Z,18.21
2019-01-05T12:14:20.928Z,18.26
2019-01-05T12:15:29.870Z,18.2
2019-01-05T12:16:45.751Z,18.23
2019-01-05T12:17:54.850Z,18.15
2019-01-05T12:19:03.655Z,18.21
2019-01-05T12:20:12.467Z,18.25
2019-01-05T12:21:21.665Z,18.21
2019-01-05T12:22:30.737Z,18.21
2019-01-05T12:23:40.529Z,18.35
2019-01-05T12:24:49.888Z,18.21
2019-01-05T12:25:58.998Z,18.23
2019-01-05T12:27:07.841Z,18.18
2019-01-05T12:28:17.457Z,18.2
2019-01-05T12:29:26.912Z,18.21
2019-01-05T12:30:36.053Z,18.25
2019-01-05T12:31:45.154Z,18.18
2019-01-05T12:32:54.348Z,18.25
2019-01-05T12:34:03.388Z,18.21
2019-01-05T12:35:12.224Z,18.23
2019-01-05T12:36:21.064Z,18.26
2019-01-05T12:37:31.122Z,18.23
2019-01-05T12:38:40.059Z,18.21
2019-01-05T12:39:48.909Z,18.23
2019-01-05T12:40:57.723Z,18.21
2019-01-05T12:42:06.580Z,18.26
2019-01-05T12:43:15.944Z,18.21
2019-01-05T12:44:24.806Z,18.33
2019-01-05T12:45:33.641Z,18.35
2019-01-05T12:46:47.277Z,18.29
2019-01-05T12:47:57.887Z,18.32
2019-01-05T12:49:06.996Z,18.32
2019-01-05T12:50:16.461Z,18.33
2019-01-05T12:51:25.275Z,18.32
2019-01-05T12:52:34.356Z,18.35
2019-01-05T12:53:43.438Z,18.25
2019-01-05T12:54:52.676Z,18.33
2019-01-05T12:56:02.285Z,18.32
2019-01-05T12:57:11.537Z,18.29
2019-01-05T12:58:20.583Z,18.36
2019-01-05T12:59:29.420Z,18.32
2019-01-05T13:00:38.519Z,18.35
2019-01-05T13:01:47.728Z,18.37
2019-01-05T13:02:56.844Z,18.29
2019-01-05T13:04:05.923Z,18.32
2019-01-05T13:05:15.014Z,18.33
2019-01-05T13:06:23.831Z,18.29
2019-01-05T13:07:33.028Z,18.3
2019-01-05T13:08:42.216Z,18.27
2019-01-05T13:09:51.285Z,18.3
2019-01-05T13:11:00.922Z,18.35
2019-01-05T13:12:10.219Z,18.32
2019-01-05T13:13:19.114Z,18.27
2019-01-05T13:14:27.946Z,18.35
2019-01-05T13:15:37.050Z,18.35
2019-01-05T13:16:45.909Z,18.25
2019-01-05T13:18:01.172Z,18.29
2019-01-05T13:19:10.087Z,18.29
2019-01-05T13:20:19.571Z,18.37
2019-01-05T13:21:28.891Z,18.32
2019-01-05T13:22:38.352Z,18.29
2019-01-05T13:23:47.172Z,18.3
2019-01-05T13:24:56.623Z,18.36
2019-01-05T13:26:05.582Z,18.33
2019-01-05T13:27:14.476Z,18.32
2019-01-05T13:28:23.298Z,18.35
2019-01-05T13:29:32.395Z,18.35
2019-01-05T13:30:41.331Z,18.32
2019-01-05T13:31:50.441Z,18.29
2019-01-05T13:32:59.294Z,18.35
2019-01-05T13:34:08.896Z,18.21
2019-01-05T13:35:17.713Z,18.05
2019-01-05T13:36:27.229Z,17.9
2019-01-05T13:37:36.353Z,17.95
2019-01-05T13:38:45.707Z,18.02
2019-01-05T13:39:54.848Z,18
2019-01-05T13:41:03.665Z,18
2019-01-05T13:42:12.470Z,18.02
2019-01-05T13:43:21.542Z,18.03
2019-01-05T13:44:30.385Z,18.02
2019-01-05T13:45:39.732Z,18.05
2019-01-05T13:46:49.092Z,18.03
2019-01-05T13:47:58.522Z,18.17
2019-01-05T13:49:07.605Z,18.11
2019-01-05T13:50:16.481Z,18.11
2019-01-05T13:51:25.854Z,18.25
2019-01-05T13:52:34.920Z,18.18
2019-01-05T13:53:44.186Z,18.18
2019-01-05T13:54:53.002Z,18.21
2019-01-05T13:56:02.115Z,18.21
2019-01-05T13:57:10.994Z,18.18
2019-01-05T13:58:20.132Z,18.21
2019-01-05T13:59:29.524Z,18.25
2019-01-05T14:00:38.605Z,18.23
2019-01-05T14:01:47.412Z,18.2
2019-01-05T14:02:56.563Z,18.27
2019-01-05T14:04:05.964Z,18.27
2019-01-05T14:05:15.083Z,18.25
2019-01-05T14:06:24.177Z,18.18
2019-01-05T14:07:33.074Z,18.23
2019-01-05T14:08:42.243Z,18.18
2019-01-05T14:09:51.382Z,18.29
2019-01-05T14:11:00.358Z,18.36
2019-01-05T14:12:09.428Z,18.36
2019-01-05T14:13:18.287Z,18.41
2019-01-05T14:14:27.153Z,18.45
2019-01-05T14:15:36.513Z,18.45
2019-01-05T14:16:46.189Z,18.41
2019-01-05T14:17:55.819Z,18.35
2019-01-05T14:19:04.685Z,18.42
2019-01-05T14:20:18.136Z,18.39
2019-01-05T14:21:27.762Z,18.51
2019-01-05T14:22:37.122Z,18.55
2019-01-05T14:23:46.758Z,18.44
2019-01-05T14:24:55.855Z,18.35
2019-01-05T14:26:05.011Z,18.41
2019-01-05T14:27:14.395Z,18.33
2019-01-05T14:28:23.579Z,18.36
2019-01-05T14:29:32.714Z,18.36
2019-01-05T14:30:42.172Z,18.33
2019-01-05T14:31:51.037Z,18.35
2019-01-05T14:32:59.860Z,18.47
2019-01-05T14:34:08.788Z,18.45
2019-01-05T14:35:17.883Z,18.39
2019-01-05T14:36:26.723Z,18.48
2019-01-05T14:37:35.607Z,18.37
2019-01-05T14:38:44.953Z,18.47
2019-01-05T14:39:53.877Z,18.39
2019-01-05T14:41:02.942Z,18.51
2019-01-05T14:42:11.768Z,18.5
2019-01-05T14:43:20.850Z,18.57
2019-01-05T14:44:29.688Z,18.6
2019-01-05T14:45:38.837Z,18.62
2019-01-05T14:46:47.921Z,18.65
2019-01-05T14:47:57.098Z,18.65
2019-01-05T14:49:06.180Z,18.65
2019-01-05T14:50:15.007Z,18.66
2019-01-05T14:51:24.236Z,18.58
2019-01-05T14:52:33.052Z,18.67
2019-01-05T14:53:42.121Z,18.69
2019-01-05T14:54:51.187Z,18.75